x

North Hecate Strait (46183) Wave Buoy

4:00am - Mon 21st Apr 2014 All times are PDT. -7 hours from GMT.

  • Sig Wave height 7.5ft
  • Peak Period 9s
  • Wind
    18mph, 22mph gusts
  • Sea Temp 45°f
  • Air Temp 45°f
  • Sea Pressure 1015mb
  • North Hecate Strait
  • North Hecate Strait

More Historic Weather Station data

Upgrade to MSW Pro to gain access to the past 30 days of data for over 8000 Wavebouys and Weather Stations around the globe.

Join Pro

Comparision Forecast

View Surf forecast
   
Mon 04/21 4:00am 7.5ft 9s 18 22 mph 1015mb 45f 45f
3:00am 8ft 9s 18 22 mph 1014.9mb 45f 45f
2:00am 9ft 10s 20 25 mph 1014.5mb 45f 45f
1:00am 10.5ft 10s 25 29 mph 1013.5mb 45f 45f
12:00am 11.5ft 10s 27 34 mph 1012.4mb 45f 45f
Sun 04/20 11:00pm 13ft 10s 31 40 mph 1011.1mb 45f 46f
10:00pm 14ft 10s 34 43 mph 1009.5mb 45f 46f
9:00pm 14ft 10s 36 47 mph 1008.3mb 45f 46f
8:00pm 15.5ft 10s  -  mph - 45f -
7:00pm  -   -  36
mph
1007.1mb - 46f
6:00pm 14ft 10s 36 45 mph 1007.6mb 45f 46f
5:00pm 15.5ft 10s 34 45 mph 1007.6mb 45f 46f
4:00pm 15.5ft 9s 36
mph
1007.2mb 45f 46f
1:00pm 13.5ft 8s 40 51 mph 1008.1mb 45f 46f
12:00pm 12.5ft 8s 40 49 mph 1008.3mb 45f 47f
11:00am  -   -  38
mph
1008.6mb - 47f
10:00am 10ft 7s 38 47 mph 1009.2mb 45f 46f
9:00am 8.5ft 7s 36 43 mph 1009.7mb 45f 46f
8:00am 7ft 6s 31 38 mph 1009.9mb 45f 46f
7:00am 7ft 7s 29 36 mph 1009.7mb 45f 46f
6:00am 6.5ft 7s 27 34 mph 1009.8mb 45f 46f
5:00am 7ft 6s 25 29 mph 1009.8mb 45f 46f
4:00am 7.5ft 10s 25 29 mph 1009.6mb 45f 46f
3:00am 8ft 6s 22 29 mph 1009.5mb 45f 46f
2:00am  -   -  25
mph
1008.4mb - 46f
1:00am 8ft 7s 25 29 mph 1007.2mb 45f 46f
12:00am 8.5ft 10s 25 29 mph 1005.8mb 45f 46f
Sat 04/19 11:00pm 9ft 11s 25 31 mph 1004.1mb 45f 46f
10:00pm 10.5ft 11s 27 31 mph 1002.5mb 45f 46f
9:00pm 11ft 11s 29 36 mph 1000.3mb 45f 46f
8:00pm 11ft 11s 31 38 mph 998mb 45f 46f
7:00pm 12ft 12s 31 38 mph 996.2mb 45f 46f
6:00pm 15ft 10s 29 36 mph 994.8mb 45f 46f
5:00pm  -   -  31
mph
- - -
4:00pm 16ft 12s 40 47 mph 993.1mb 45f 47f
3:00pm 15.5ft 11s 36 43 mph 993.1mb 45f 46f
2:00pm 15.5ft 9s 38 45 mph 993.6mb 45f 46f
1:00pm 15.5ft 10s 40 49 mph 993.7mb 45f 46f
12:00pm 15ft 11s 38 45 mph 993.7mb 45f 47f
11:00am 13ft 8s 36 49 mph 993.7mb 45f 48f
10:00am 14ft 10s 31 43 mph 994.2mb 45f 47f
9:00am 13.5ft 10s 31 40 mph 994.3mb 45f 46f
8:00am  -   -  34
mph
- - -
7:00am 12.5ft 10s 34 43 mph 995.4mb 45f 44f
6:00am 14ft 9s 34 43 mph 996mb 45f 44f
5:00am 14ft 9s 38 49 mph 996.9mb 45f 43f
4:00am 14ft 8s 38 47 mph 998.3mb 45f 44f
3:00am 13.5ft 9s 36 45 mph 999.4mb 45f 44f
2:00am 11.5ft 8s 34 40 mph 1000.4mb 45f 44f
1:00am 11ft 7s 34 43 mph 1001.9mb 45f 45f
12:00am 8.5ft 7s 31 38 mph 1002.9mb 46f 44f
Fri 04/18 11:00pm 8ft 7s 31 40 mph 1003.6mb 46f 45f
10:00pm 7ft 6s 29 36 mph 1004.8mb 45f 46f
9:00pm 6.5ft 7s 27 31 mph 1005.8mb 45f 46f
8:00pm 6.5ft 7s 27 34 mph 1006.7mb 46f 45f
7:00pm 7ft 6s 27 31 mph 1007.8mb 46f 45f
6:00pm 6ft 6s 27 34 mph 1008.5mb 45f 45f
5:00pm 5ft 5s 27 31 mph 1009.3mb 45f 45f
3:00pm 4ft 4s 22 29 mph 1010.9mb 45f 45f
2:00pm 3.5ft 4s 22 29 mph 1011.4mb 45f 44f
1:00pm 3.5ft 4s 22 27 mph 1012mb 46f 45f
12:00pm 3ft 4s 20 25 mph 1012.3mb 45f 45f
11:00am 2ft 3s 18 22 mph 1012.5mb 45f 45f
10:00am 1.6ft 11s 16 18 mph 1012.8mb 45f 45f
9:00am 1.6ft 10s 13 16 mph 1012.8mb 45f 45f
8:00am 1.6ft 10s 9 11 mph 1012.7mb 45f 45f
7:00am 2ft 7s 9 11 mph 1012.4mb 45f 45f
6:00am 1.6ft 14s 11
mph
1012mb 45f 44f
5:00am 2ft 10s 9 11 mph 1011.5mb 45f 44f
4:00am 2ft 7s 9 11 mph 1011.1mb 45f 44f
3:00am 2.5ft 11s 9 11 mph 1011mb 45f 44f
2:00am 2.5ft 5s 9
mph
1010.5mb 45f 44f
1:00am 2.5ft 11s 9 11 mph 1010.3mb 45f 44f
12:00am 3ft 6s 11 13 mph 1009.9mb 45f 45f
Thu 04/17 11:00pm 3ft 6s 13
mph
1009.5mb 45f 45f
10:00pm 3ft 7s 9 11 mph 1009mb 45f 44f
9:00pm 3.5ft 7s 11 13 mph 1008.4mb 45f 45f
8:00pm 3.5ft 7s 13 16 mph 1007.5mb 45f 45f
7:00pm 3.5ft 8s 13 18 mph 1006.9mb 45f 45f
6:00pm 4.5ft 8s 16 20 mph 1006.2mb 45f 45f
5:00pm 4.5ft 8s 18 20 mph 1005.4mb 45f 46f
4:00pm 5ft 8s 13 16 mph 1004.9mb 45f 45f
3:00pm 6ft 8s 13 16 mph 1004.1mb 45f 46f
2:00pm 6ft 8s 16 18 mph 1003.3mb 45f 46f
1:00pm 6ft 8s 18 22 mph 1002.3mb 45f 46f